GMMD

Beni Mellal Airport

Morocco
METAR GMMD 171100Z 20004KT CAVOK 16/07 Q1026 NOSIG
Observed Flight Rules
Dec-17 @ 11:00 UTC (an hour ago) Visual Flight Rules
Wind Visibility Clouds
200° at 4 knots 10,000+ meters
  • Clear skies
Temperatures Readings
Current 16°C / 61°F
Dewpoint 7°C / 45°F
Humidity 55%
Altimeter 30.3" Hg
Pressure 1026 hPa
Elevation 509
METAR GMMD 171100Z 20004KT CAVOK 16/07 Q1026 NOSIG
Observed Flight Rules
Dec-17 @ 11:00 UTC
(an hour ago)
VFR
Wind Visibility
200° at 4 knots 10,000+ meters
Clouds
  • Clear skies
Temperature Dewpoint
16°C / 61°F 7°C / 45°F
Humidity Altimeter Pressure
55% 30.3" Hg 1026 hPa